Flight Track Log - Related Links

Times and Time Zones

All times are in EDT time to prevent confusion due to time zone crossing. See the N830QS flight status page for this flight to view local times or setup timezone preferences in your user account.

Time Position Orientation Groundspeed Altitude Reporting Facility
EDT Latitude Longitude Course Direction KTS MPH feet Rate Location/Type
Thu 05:32:10 PM 37.6333 -122.3667 360° North 167 192 1,600  Level Northern Cal TRACON
Thu 05:33:10 PM 37.6833 -122.3667 360° North 212 244 5,500 3,600 Climbing Northern Cal TRACON
Thu 05:34:10 PM 37.6500 -122.4167 230° Southwest 231 266 8,800 2,083 Climbing Northern Cal TRACON
Thu 05:35:11 PM 37.5889 -122.4483 202° Southwest 271 312 9,700 1,415 Climbing Oakland Center
Thu 05:36:13 PM 37.4997 -122.4783 195° South 325 374 11,700 2,323 Climbing Oakland Center
Thu 05:37:15 PM 37.4114 -122.4933 188° South 319 367 14,500 2,634 Climbing Oakland Center
Thu 05:38:16 PM 37.3083 -122.5111 188° South 312 359 17,100 2,000 Climbing Oakland Center
Thu 05:39:18 PM 37.2194 -122.5272 188° South 321 369 18,600 919 Climbing Oakland Center
Thu 05:40:20 PM 37.1206 -122.5442 188° South 356 410 19,000 195 Climbing Oakland Center
Thu 05:41:21 PM 37.0181 -122.5650 189° South 373 429 19,000  Level Oakland Center
Thu 05:42:23 PM 36.9164 -122.5619 179° South 370 426 19,000  Level Oakland Center
Thu 05:43:25 PM 36.8150 -122.5372 169° South 371 427 19,000  Level Oakland Center
Thu 05:44:26 PM 36.7150 -122.5106 168° South 369 425 19,000  Level Oakland Center
Thu 05:45:28 PM 36.5942 -122.4808 169° South 368 423 19,000  Level Oakland Center
Thu 05:46:30 PM 36.4950 -122.4533 167° South 367 422 19,000  Level Oakland Center
Thu 05:47:31 PM 36.3986 -122.4147 162° South 381 438 19,000  Level Oakland Center
Thu 05:48:33 PM 36.3353 -122.3153 128° Southeast 368 423 19,000  Level Oakland Center
Thu 05:49:34 PM 36.2700 -122.2150 129° Southeast 373 429 19,000  Level Oakland Center
Thu 05:50:36 PM 36.2028 -122.1175 130° Southeast 373 429 19,000  Level Oakland Center
Thu 05:51:38 PM 36.1361 -122.0194 130° Southeast 374 430 19,000  Level Oakland Center
Thu 05:52:39 PM 36.0547 -121.9039 131° Southeast 372 428 19,000  Level Oakland Center
Thu 05:53:41 PM 35.9897 -121.8100 131° Southeast 372 428 19,000  Level Oakland Center
Thu 05:54:42 PM 35.9219 -121.7131 131° Southeast 373 429 19,000  Level Oakland Center
Thu 05:55:44 PM 35.8547 -121.6156 130° Southeast 373 429 19,000  Level Oakland Center
Thu 05:56:45 PM 35.7869 -121.5194 131° Southeast 373 429 19,000  Level Oakland Center
Thu 05:57:47 PM 35.7200 -121.4222 130° Southeast 372 428 19,000  Level Oakland Center
Thu 05:58:48 PM 35.6378 -121.3072 131° Southeast 373 429 19,000  Level Oakland Center
Thu 05:59:50 PM 35.5703 -121.2114 131° Southeast 372 428 19,000  Level Oakland Center
Thu 06:00:51 PM 35.5033 -121.1161 131° Southeast 370 426 19,000  Level Oakland Center
Thu 06:01:53 PM 35.4375 -121.0206 130° Southeast 370 426 19,000  Level Oakland Center
Thu 06:02:54 PM 35.3694 -120.9264 132° Southeast 370 426 19,000  Level Oakland Center
Thu 06:03:56 PM 35.3019 -120.8325 131° Southeast 369 425 19,000  Level Oakland Center
Thu 06:04:57 PM 35.2317 -120.7397 133° Southeast 373 429 19,000  Level Oakland Center
Thu 06:06:21 PM 35.1103 -120.6294 143° Southeast 374 430 19,000  Level Los Angeles Center
Thu 06:07:23 PM 35.0275 -120.5514 142° Southeast 375 432 19,000  Level Los Angeles Center
Thu 06:08:25 PM 34.9442 -120.4739 143° Southeast 375 432 19,000 -339 Level Los Angeles Center
Thu 06:09:27 PM 34.8608 -120.3944 142° Southeast 377 434 18,300 -1,306 Descending Los Angeles Center
Thu 06:10:29 PM 34.7789 -120.3186 143° Southeast 369 425 16,300 -2,371 Descending Los Angeles Center
Thu 06:11:31 PM 34.6831 -120.2300 143° Southeast 361 415 13,400 -1,645 Descending Los Angeles Center
Thu 06:12:33 PM 34.6094 -120.1608 142° Southeast 340 391 12,900 -1,500 Descending Los Angeles Center
Thu 06:13:35 PM 34.5356 -120.0961 144° Southeast 317 365 10,300 -2,732 Descending Los Angeles Center
Thu 06:14:25 PM 34.4808 -120.0500 145° Southeast 280 322 7,800 -3,000 Descending Los Angeles Center
Thu 06:15:25 PM 34.4294 -119.9831 133° Southeast 270 311 4,800 -1,983 Descending Los Angeles Center
Thu 06:16:20 PM 34.3889 -119.9178 127° Southeast 272 313 4,000 -776 Descending Los Angeles Center
Thu 06:17:21 PM 34.3631 -119.8403 112° Southeast 236 272 3,300 -991 Descending Los Angeles Center
Thu 06:18:15 PM 34.3764 -119.7836 74° East 213 245 2,100 -918 Descending Los Angeles Center
Thu 06:18:46 PM 34.4036 -119.7819 North 241 277 2,000 -1,063 Descending Los Angeles Center
Thu 06:19:34 PM 34.4269 -119.8064 319° Northwest 149 171 700 -871 Descending Los Angeles Center
Thu 06:20:50 PM 34.4231 -119.8467 263° West 162 186 200 -395 Descending Los Angeles Center
Thu 06:22:00 PM 34.4262 -119.8415 287° West  Level Estimated

Login

Don't have an account? Register now (free) for customized features, flight alerts, and more!